Date,TemperatureHighF,TemperatureAvgF,TemperatureLowF,DewpointHighF,DewpointAvgF,DewpointLowF,HumidityHigh,HumidityAvg,HumidityLow,PressureMaxIn,PressureMinIn,WindSpeedMaxMPH,WindSpeedAvgMPH,GustSpeedMaxMPH,PrecipitationSumIn
2014-1-1,39.0,26.9,15.8,23.2,12.4,4.4,85,56,27,29.90,29.70,11,2,26,0.00
2014-1-2,48.0,33.8,23.5,15.4,6.8,-6.4,55,34,12,29.92,29.82,10,2,25,0.00
2014-1-3,50.4,38.4,28.6,15.6,12.3,8.1,56,35,19,29.83,29.53,11,3,25,0.00
2014-1-4,32.4,15.0,-1.7,18.4,9.0,-6.5,89,77,47,29.67,29.51,11,1,22,0.00
2014-1-5,19.8,6.1,-2.2,1.0,-6.0,-11.4,81,58,34,29.78,29.64,10,2,27,0.00
2014-1-6,38.5,22.3,5.7,12.4,1.0,-11.6,64,40,24,29.91,29.73,12,3,27,0.00
2014-1-7,54.7,25.1,0.0,18.0,10.1,3.5,70,53,20,30.09,29.82,8,1,16,0.00
2014-1-8,43.9,29.3,20.3,16.5,13.5,9.8,70,53,28,29.96,29.88,8,1,17,0.00
2014-1-9,40.1,27.9,20.5,18.8,11.1,7.2,85,51,26,29.88,29.68,12,2,21,0.00
2014-1-10,27.5,21.6,14.5,14.4,7.8,-1.2,71,55,42,29.84,29.64,14,3,28,0.00
2014-1-11,50.9,36.8,23.7,21.2,16.9,11.7,67,45,29,30.00,29.75,14,3,25,0.00
2014-1-12,39.4,26.6,16.3,21.1,10.1,-0.8,85,50,34,29.85,29.64,10,2,24,0.02
2014-1-13,35.2,25.5,16.9,14.1,8.9,1.9,66,50,34,30.02,29.84,13,4,29,0.00
2014-1-14,31.6,26.0,21.7,17.0,13.5,10.1,78,59,46,30.16,29.97,8,2,17,0.00
2014-1-15,44.1,33.5,28.0,15.4,11.5,7.6,52,40,28,30.12,30.01,12,3,22,0.00
2014-1-16,41.0,29.1,17.4,9.4,6.4,2.4,56,39,21,30.12,30.02,9,2,21,0.00
2014-1-17,48.6,32.9,0.0,14.2,9.4,5.5,53,36,22,30.08,29.99,8,3,19,0.00
2014-1-18,54.3,36.5,25.9,9.9,4.2,-3.8,45,28,10,30.14,30.01,8,2,14,0.00
2014-1-19,52.9,39.0,27.7,11.6,3.1,-7.1,45,23,12,30.11,30.02,11,3,25,0.00
2014-1-20,47.1,31.5,22.5,13.3,6.0,-4.4,52,35,13,30.23,30.01,10,2,17,0.00
2014-1-21,53.6,36.5,21.0,-0.9,-9.7,-20.1,37,14,10,30.22,30.05,49,2,49,0.00
2014-1-22,33.4,24.3,17.8,17.0,-0.9,-20.8,85,43,10,30.06,29.91,5,1,8,0.00
2014-1-23,33.1,18.7,9.0,14.4,8.6,-4.9,86,66,40,30.12,29.95,8,1,12,0.04
2014-1-24,53.2,35.8,12.4,11.4,-2.9,-22.1,49,21,10,30.11,30.02,10,2,23,0.00
2014-1-25,57.6,39.8,25.3,21.0,15.1,6.5,64,39,20,30.09,29.87,9,2,19,0.00
2014-1-26,49.3,32.5,14.9,21.1,13.3,8.3,90,50,20,29.92,29.78,14,2,27,0.00
2014-1-27,25.3,12.2,0.0,19.8,7.8,0.3,88,82,62,29.99,29.73,8,1,16,0.00
2014-1-28,32.7,16.3,-2.2,1.9,-5.6,-14.2,83,44,13,30.03,29.95,10,2,24,0.01
2014-1-29,46.6,33.4,22.8,26.6,11.1,-8.6,74,41,22,29.99,29.73,14,4,30,0.00
2014-1-30,35.4,29.3,24.8,29.7,24.9,21.0,92,84,70,29.82,29.69,8,0,15,0.02
2014-1-31,32.9,22.8,16.9,23.7,18.0,13.7,89,82,64,29.76,29.66,0,0,0,0.01
2014-2-1,47.3,14.9,-1.3,16.5,7.2,-5.6,88,74,10,29.94,29.75,6,1,11,0.04
2014-2-2,40.3,15.1,-1.5,11.2,1.4,-6.6,83,58,23,29.94,29.85,7,1,11,0.01
2014-2-3,42.3,18.5,1.8,12.9,5.7,-4.3,86,62,24,29.85,29.76,9,2,17,0.07
2014-2-4,30.2,8.0,-14.3,13.5,1.5,-19.9,86,75,43,29.95,29.76,8,1,14,0.01
2014-2-5,24.8,1.1,-15.7,9.8,-8.7,-21.3,84,65,34,29.97,29.89,8,1,13,0.00
2014-2-6,35.4,17.0,-2.0,13.0,6.1,-6.8,84,63,35,29.89,29.79,11,1,20,0.00
2014-2-7,41.7,23.0,9.7,19.8,11.1,3.6,82,62,31,29.90,29.77,11,1,18,0.02
2014-2-8,41.7,27.9,21.2,26.8,19.4,10.5,86,71,48,30.02,29.85,6,1,12,0.07
2014-2-9,53.2,35.1,25.7,29.4,24.6,21.7,86,68,34,30.01,29.92,8,1,16,0.01
2014-2-10,43.5,26.6,11.8,27.8,19.0,6.3,83,73,48,30.08,29.94,6,1,9,0.06
2014-2-11,45.3,25.4,10.4,11.5,6.0,1.1,78,47,16,30.08,29.94,11,2,22,0.01
2014-2-12,50.0,32.3,21.9,23.0,13.3,1.6,66,47,17,30.09,29.90,11,3,29,0.00
2014-2-13,51.8,36.1,29.3,31.5,25.9,20.6,89,69,30,30.05,29.93,11,2,28,0.01
2014-2-14,51.1,35.6,25.3,29.2,20.3,2.4,90,57,18,30.07,29.95,10,2,23,0.00
2014-2-15,51.8,43.2,37.2,29.2,22.6,16.5,68,45,26,30.12,29.99,11,2,21,0.00
2014-2-16,58.1,41.1,25.7,29.2,19.4,10.7,88,46,18,30.09,29.89,13,2,24,0.00
2014-2-17,55.2,35.3,18.7,11.7,1.7,-8.3,63,29,10,30.19,29.96,11,2,21,0.04
2014-2-18,55.0,40.5,29.3,12.4,3.4,-5.6,44,23,10,30.05,29.93,13,2,27,0.00
2014-2-19,52.2,37.0,19.8,25.2,11.3,-1.0,87,38,20,30.00,29.68,12,2,24,0.00
2014-2-20,27.3,17.5,12.2,4.9,-2.0,-7.6,53,42,28,29.97,29.74,16,3,26,0.00
2014-2-21,42.4,28.0,16.5,13.0,6.4,-1.0,69,42,18,29.97,29.89,11,2,26,0.00
2014-2-22,40.3,28.7,22.3,20.2,15.1,11.0,80,58,33,29.97,29.87,10,1,17,0.00
2014-2-23,47.7,35.2,23.4,19.6,12.8,5.0,82,44,21,30.03,29.95,14,2,29,0.01
2014-2-24,51.4,38.7,21.9,17.7,11.4,5.7,79,35,17,30.10,29.94,13,3,29,0.00
2014-2-25,53.1,31.0,6.4,20.8,12.5,2.2,83,52,23,30.11,29.94,13,2,30,0.00
2014-2-26,50.9,29.6,7.3,20.6,6.6,-6.6,88,48,10,30.09,29.96,11,2,22,0.00
2014-2-27,53.2,36.4,25.5,27.4,19.7,11.1,78,52,26,29.98,29.73,9,1,15,0.00
2014-2-28,49.8,37.9,32.2,24.8,17.0,4.4,62,44,19,29.88,29.72,12,2,20,0.00
2014-3-1,45.1,32.7,25.3,35.0,25.2,19.5,90,74,53,29.93,29.79,8,1,14,0.15
2014-3-2,46.4,32.4,21.0,22.5,17.7,11.6,79,57,26,30.09,29.89,13,1,21,0.00
2014-3-3,49.5,36.5,27.1,21.7,17.1,11.9,68,47,27,30.08,30.01,14,2,27,0.00
2014-3-4,55.6,37.8,24.3,27.0,14.1,1.4,92,44,12,30.07,29.91,9,2,16,0.00
2014-3-5,48.2,32.2,14.4,24.7,14.4,6.4,91,54,19,30.15,30.06,11,2,19,0.12
2014-3-6,59.0,39.2,26.2,21.1,12.9,2.7,59,37,12,30.14,29.95,11,2,21,0.00
2014-3-7,35.8,28.6,23.5,28.8,23.4,18.3,92,81,59,30.13,29.93,9,1,14,0.00
2014-3-8,56.1,31.7,14.5,26.4,17.9,10.6,91,62,22,30.29,30.13,7,1,11,0.09
2014-3-9,61.9,41.3,19.8,14.4,5.0,-7.0,69,29,10,30.28,30.17,10,2,21,0.00
2014-3-10,64.2,46.4,33.4,16.9,2.3,-10.6,48,18,10,30.19,29.85,12,2,21,0.00
2014-3-11,43.5,28.6,15.1,23.1,14.7,0.6,87,61,18,30.22,29.82,12,2,21,0.00
2014-3-12,52.5,27.9,2.7,18.5,4.9,-4.9,85,47,10,30.23,30.16,8,1,17,0.06
2014-3-13,52.7,37.7,23.0,16.9,8.7,0.2,54,32,14,30.17,29.96,15,3,26,0.00
2014-3-14,53.8,36.4,17.4,15.7,8.3,-2.4,72,36,10,30.08,30.00,12,2,24,0.00
2014-3-15,41.0,29.0,19.0,19.5,11.1,-0.7,73,49,19,30.25,29.97,12,2,18,0.00
2014-3-16,54.5,36.0,19.0,16.8,9.2,-0.3,65,36,13,30.25,30.09,13,3,25,0.00
2014-3-17,57.6,41.4,24.6,27.3,9.5,-2.6,87,32,10,30.09,29.61,16,3,33,0.00
2014-3-18,33.3,22.1,11.1,19.5,10.3,2.6,86,63,31,30.05,29.59,11,2,31,0.00
2014-3-19,48.0,26.6,5.5,12.9,6.7,-1.5,86,50,14,30.11,30.03,11,2,26,0.08
2014-3-20,57.0,43.2,27.0,4.8,-3.7,-15.5,36,14,10,30.10,29.97,11,2,18,0.00
2014-3-21,51.4,33.1,21.6,22.7,11.2,-5.4,89,47,10,30.09,29.97,11,2,20,0.00
2014-3-22,44.1,26.9,18.5,26.4,19.2,15.6,90,74,42,30.18,29.95,11,2,17,0.07
2014-3-23,50.9,30.9,12.2,15.6,7.4,-5.1,88,47,10,30.19,30.03,12,2,22,0.01
2014-3-24,49.3,35.4,17.2,16.8,7.4,-3.4,85,36,12,30.15,30.07,12,2,23,0.00
2014-3-25,63.1,39.0,17.2,17.2,9.0,-2.9,82,38,10,30.18,29.92,14,2,21,0.00
2014-3-26,56.5,39.1,26.1,28.8,16.2,8.6,87,43,18,29.93,29.60,14,2,22,0.00
2014-3-27,46.8,34.3,23.0,23.2,16.0,5.6,81,51,20,29.93,29.60,12,2,26,0.01
2014-3-28,43.9,31.8,19.4,20.6,13.3,7.4,85,49,27,30.16,29.91,11,2,26,0.04
2014-3-29,57.6,46.1,25.9,15.5,6.2,-5.6,48,22,10,30.19,30.05,14,4,33,0.00
2014-3-30,57.9,42.0,30.2,28.7,15.6,10.0,80,38,16,30.06,29.74,14,3,28,0.00
2014-3-31,46.8,34.3,25.5,22.2,11.0,-5.6,79,41,12,30.02,29.75,16,3,25,0.00
2014-4-1,48.6,34.2,24.8,23.3,16.8,13.1,77,51,27,30.00,29.82,12,2,29,0.00
2014-4-2,49.5,34.7,21.7,27.3,16.7,8.1,92,53,19,29.84,29.75,11,2,22,0.00
2014-4-3,46.9,27.2,13.1,27.1,20.6,9.2,94,78,40,30.09,29.81,8,2,16,0.13
2014-4-4,50.7,29.0,9.0,20.9,13.1,3.6,84,56,16,30.09,29.97,10,1,17,0.00
2014-4-5,50.4,30.6,17.2,27.0,19.7,11.5,91,67,22,30.00,29.94,8,1,14,0.00
2014-4-6,48.4,32.8,16.9,27.2,18.0,10.0,91,59,27,30.03,29.94,11,2,22,0.13
2014-4-7,45.5,33.1,21.4,24.7,18.7,12.5,84,58,27,30.20,30.03,12,2,23,0.00
2014-4-8,61.5,44.0,27.7,25.2,21.0,15.0,75,45,18,30.28,30.19,12,2,26,0.00
2014-4-9,66.6,50.4,40.8,24.2,17.0,8.4,44,29,12,30.24,30.06,15,3,24,0.00
2014-4-10,65.1,49.2,33.6,24.2,17.3,6.4,61,32,10,30.16,30.06,11,2,25,0.00
2014-4-11,67.5,48.4,28.0,25.5,15.8,5.4,75,36,10,30.17,30.03,13,2,22,0.00
2014-4-12,63.9,48.6,37.6,29.3,16.9,5.9,61,31,10,30.03,29.87,10,2,20,0.00
2014-4-13,41.5,25.6,10.2,32.4,21.9,6.2,95,86,61,30.08,29.86,9,3,15,0.00
2014-4-14,41.5,22.7,0.1,14.9,6.5,-4.2,85,55,20,30.14,30.08,11,2,23,0.12
2014-4-15,55.8,39.9,22.6,20.8,10.8,5.1,55,32,14,30.13,29.86,14,3,21,0.00
2014-4-16,52.9,38.3,27.3,25.4,18.4,5.2,89,49,16,30.11,29.85,12,2,19,0.00
2014-4-17,59.2,40.8,25.2,25.6,21.6,14.3,90,52,17,30.14,30.07,11,2,17,0.01
2014-4-18,70.0,51.2,31.6,27.6,20.5,7.9,62,35,10,30.15,30.06,12,3,21,0.00
2014-4-19,58.3,43.1,34.7,40.1,32.3,24.1,93,67,40,30.20,30.10,8,1,17,0.15
2014-4-20,64.0,46.1,32.0,38.7,32.2,24.3,96,63,22,30.25,30.14,8,1,14,0.01
2014-4-21,62.4,44.8,29.5,38.7,31.6,25.1,87,62,28,30.31,30.23,10,2,16,0.00
2014-4-22,66.7,50.1,35.1,36.2,31.0,24.8,82,52,21,30.25,29.91,12,2,24,0.00
2014-4-23,62.2,47.9,34.5,31.6,19.8,1.0,71,38,10,29.99,29.82,14,3,27,0.00
2014-4-24,61.0,42.7,25.9,17.8,9.2,-1.3,49,28,10,30.07,29.99,11,3,21,0.00
2014-4-25,66.4,48.4,28.4,21.1,13.3,3.9,59,29,10,30.06,29.88,14,2,24,0.00
2014-4-26,64.8,47.5,34.2,31.6,19.9,9.0,78,38,13,29.90,29.61,12,3,24,0.00
2014-4-27,42.4,36.6,30.6,22.9,16.5,11.6,56,44,32,29.74,29.52,15,4,32,0.00
2014-4-28,43.9,33.1,25.0,20.2,10.3,1.8,57,40,19,30.02,29.72,14,4,35,0.00
2014-4-29,46.6,34.0,23.0,17.6,11.5,5.8,61,41,21,30.21,30.01,13,2,34,0.00
2014-4-30,46.9,33.0,20.5,23.0,15.0,4.2,84,51,18,30.27,30.19,10,2,26,0.00
2014-5-1,56.5,36.9,17.2,14.8,8.6,-7.0,72,36,10,30.26,30.17,11,2,21,0.00
2014-5-2,66.9,49.3,27.9,28.0,19.8,12.3,54,34,14,30.19,30.13,11,2,25,0.00
2014-5-3,72.7,54.1,39.9,25.0,17.3,6.0,53,27,10,30.18,30.12,9,2,17,0.00
2014-5-4,73.9,56.3,38.8,21.7,13.7,2.0,48,22,10,30.15,30.04,12,3,25,0.00
2014-5-5,69.3,51.5,34.7,21.4,11.7,2.0,48,24,10,30.14,29.99,13,2,21,0.00
2014-5-6,70.3,50.6,34.2,27.5,14.6,3.9,47,28,10,30.00,29.82,10,2,16,0.00
2014-5-7,62.1,47.1,28.9,33.5,14.0,-0.2,77,31,10,29.89,29.79,14,2,22,0.00
2014-5-8,54.9,39.1,27.9,34.1,24.4,11.8,91,61,19,30.04,29.87,10,2,19,0.00
2014-5-9,59.4,42.0,31.8,32.0,24.0,18.6,93,53,22,30.06,29.94,10,2,21,0.00
2014-5-10,59.0,44.7,30.9,38.6,32.0,26.3,95,65,33,30.05,29.91,9,1,19,0.32
2014-5-11,40.8,30.3,23.7,36.9,28.0,21.8,97,91,83,30.06,29.86,9,3,19,0.28
2014-5-12,32.0,24.2,19.9,22.5,19.5,14.9,92,82,63,30.30,30.05,9,2,17,0.01
2014-5-13,49.5,29.0,14.7,27.1,18.8,11.4,90,70,29,30.40,30.28,8,1,12,0.14
2014-5-14,51.4,35.1,16.0,29.1,21.0,12.1,86,61,28,30.40,30.31,9,2,16,0.08
2014-5-15,58.5,41.7,30.6,34.5,30.3,25.1,94,68,29,30.32,30.23,12,2,23,0.07
2014-5-16,64.0,52.9,39.7,37.2,31.8,20.5,90,48,22,30.22,30.15,16,3,32,0.02
2014-5-17,67.8,49.7,32.7,42.4,34.2,23.2,97,62,19,30.19,30.09,11,2,21,0.02
2014-5-18,75.7,54.9,34.2,37.9,24.9,10.7,84,41,10,30.15,29.98,13,2,20,0.00
2014-5-19,73.9,56.9,38.1,28.3,16.3,3.5,55,25,10,30.09,29.96,13,2,26,0.00
2014-5-20,70.2,51.9,33.1,43.5,35.0,20.2,86,57,18,30.17,30.08,11,2,17,0.00
2014-5-21,70.2,51.1,33.8,45.9,36.4,23.5,86,63,19,30.27,30.15,15,2,25,0.02
2014-5-22,69.3,50.4,40.3,43.6,38.3,24.4,93,69,20,30.32,30.23,11,1,16,0.19
2014-5-23,63.5,50.5,38.8,48.4,42.1,36.0,91,75,42,30.29,30.15,11,2,19,0.11
2014-5-24,62.6,47.6,39.4,46.5,40.4,36.4,94,78,48,30.21,30.08,11,2,18,0.45
2014-5-25,55.4,42.5,32.5,45.7,38.7,31.0,97,87,64,30.21,30.09,7,1,13,0.30
2014-5-26,67.1,48.7,31.6,43.3,35.2,28.0,98,65,26,30.26,30.17,7,1,12,0.01
2014-5-27,77.2,56.1,37.4,41.2,32.8,19.4,87,50,13,30.34,30.23,10,2,16,0.00
2014-5-28,78.1,60.5,39.7,40.5,31.9,12.6,77,41,10,30.34,30.25,10,2,19,0.00
2014-5-29,79.2,58.0,44.1,49.4,39.3,28.2,90,56,17,30.30,30.21,11,2,20,0.20
2014-5-30,67.3,53.0,39.7,49.7,44.3,37.3,92,73,43,30.28,30.21,8,1,13,0.06
2014-5-31,74.7,55.1,36.9,46.2,38.4,31.7,95,60,21,30.28,30.15,12,2,21,0.02
2014-6-1,75.7,58.4,42.6,39.9,27.6,11.0,79,38,10,30.24,30.10,13,2,21,0.00
2014-6-2,79.7,60.2,38.5,41.8,31.2,13.2,78,41,10,30.25,30.18,11,2,21,0.00
2014-6-3,79.0,61.9,43.7,39.4,26.2,9.9,74,34,10,30.22,30.08,18,2,32,0.00
2014-6-4,81.3,59.0,34.9,41.4,26.0,10.3,59,34,10,30.21,30.08,11,2,17,0.00
2014-6-5,75.7,57.2,37.9,45.7,38.3,18.7,91,55,12,30.23,30.15,10,2,18,0.04
2014-6-6,73.8,58.4,43.5,47.6,38.3,15.4,95,55,13,30.22,30.08,10,2,17,0.02
2014-6-7,72.7,53.4,38.7,50.2,41.7,31.7,92,68,26,30.23,30.14,10,2,18,0.01
2014-6-8,69.3,48.9,38.3,46.9,40.6,34.0,95,75,29,30.22,30.04,9,1,15,0.08
2014-6-9,63.9,47.6,28.6,37.7,32.5,25.1,93,61,29,30.22,30.16,10,2,15,0.00
2014-6-10,75.9,56.6,35.1,40.6,29.2,17.1,79,42,12,30.20,30.12,12,2,28,0.00
2014-6-11,75.4,58.9,45.3,43.5,35.3,28.3,79,44,19,30.25,30.09,8,2,17,0.00
2014-6-12,75.6,57.4,39.7,48.9,41.4,17.5,86,59,12,30.26,30.19,11,2,17,0.00
2014-6-13,81.5,62.2,45.1,42.4,29.3,11.5,78,38,10,30.24,30.01,14,2,27,0.00
2014-6-14,73.6,56.3,41.9,32.0,21.1,6.7,50,30,10,30.05,29.92,15,2,25,0.00
2014-6-15,74.1,53.2,32.4,34.2,23.2,9.9,67,36,10,30.10,30.03,12,2,24,0.00
2014-6-16,77.4,60.2,40.5,28.8,17.1,7.0,57,23,10,30.06,29.99,14,3,27,0.00
2014-6-17,79.3,60.6,38.1,27.6,19.0,12.7,48,23,10,30.06,30.00,14,2,24,0.00
2014-6-18,74.5,57.0,41.5,40.4,28.1,15.6,61,37,11,30.15,30.03,12,2,24,0.00
2014-6-19,77.5,46.7,32.7,35.5,31.1,10.4,90,59,10,30.32,30.15,9,1,16,0.00
2014-6-20,83.3,61.5,38.3,38.1,28.8,12.2,70,37,10,30.31,30.21,9,2,27,0.00
2014-6-21,80.2,60.2,43.3,41.0,31.4,20.0,64,38,12,30.25,30.15,9,1,98,0.00
2014-6-22,76.5,55.1,41.0,46.2,33.6,28.3,82,47,19,30.28,30.18,13,1,24,0.15
2014-6-23,77.9,58.0,40.6,46.5,38.2,19.7,92,54,12,30.30,30.22,9,2,17,0.00
2014-6-24,79.7,60.0,42.6,47.9,36.5,18.0,77,49,10,30.30,30.21,11,2,21,0.00
2014-6-25,80.1,62.3,48.7,47.3,39.0,26.3,78,47,15,30.29,30.14,8,2,16,0.01
2014-6-26,83.7,63.1,43.9,41.6,29.6,17.4,68,35,10,30.22,29.99,11,2,17,0.00
2014-6-27,75.7,60.9,49.1,45.5,31.0,20.4,81,36,16,30.07,29.97,11,2,21,0.00
2014-6-28,77.0,59.3,44.8,39.8,32.0,25.0,79,40,15,30.22,30.06,17,2,27,0.02
2014-6-29,86.7,65.7,41.0,35.3,26.7,20.3,57,28,10,30.22,30.17,13,2,22,0.00
2014-6-30,87.3,68.5,49.8,43.8,30.0,15.9,56,29,10,30.28,30.17,9,2,20,0.00
2014-7-1,69.6,58.4,48.7,45.5,40.6,33.1,63,52,37,30.37,30.26,11,2,20,0.00
2014-7-2,77.4,61.9,47.5,48.9,43.7,39.1,76,54,30,30.37,30.28,49,2,49,0.00
2014-7-3,86.2,63.9,44.4,52.8,38.9,17.6,94,52,10,30.41,30.14,8,2,17,0.43
2014-7-4,82.2,61.1,45.5,53.6,45.3,36.7,90,63,21,30.42,30.32,8,1,13,0.19
2014-7-5,82.4,64.4,45.5,49.1,40.5,25.9,86,49,14,30.40,30.35,9,1,19,0.00
2014-7-6,85.8,65.3,46.4,45.4,38.4,25.9,70,42,12,30.41,30.33,10,1,15,0.00
2014-7-7,88.5,68.7,49.6,52.7,39.2,23.9,81,40,10,30.37,30.25,11,2,16,0.00
2014-7-8,76.8,60.9,51.1,59.6,51.6,45.7,90,73,39,30.37,30.31,11,2,18,0.06
2014-7-9,86.0,65.9,45.7,46.8,41.1,27.6,82,46,13,30.34,30.24,9,2,16,0.00
2014-7-10,82.2,66.7,48.6,53.8,41.7,34.7,67,43,19,30.28,30.22,9,1,13,0.04
2014-7-11,83.8,62.8,49.6,58.4,48.9,42.0,93,65,24,30.37,30.26,8,1,15,0.19
2014-7-12,81.5,58.5,47.1,57.7,51.2,45.8,98,80,30,30.47,30.32,11,1,20,0.73
2014-7-13,78.4,61.0,46.8,57.2,51.9,46.2,99,75,42,30.45,30.36,7,1,13,0.02
2014-7-14,75.6,61.0,49.5,57.3,50.7,46.2,91,71,42,30.42,30.39,8,1,14,0.14
2014-7-15,76.6,61.7,52.2,56.2,49.7,42.1,93,68,32,30.42,30.26,9,2,14,0.08
2014-7-16,73.6,58.1,47.5,57.0,49.3,45.2,94,74,42,30.29,30.18,11,2,20,0.38
2014-7-17,70.7,55.8,41.0,55.0,47.5,40.2,98,76,50,30.26,30.21,8,1,14,0.01
2014-7-18,79.5,62.4,43.5,48.8,43.3,35.6,92,56,22,30.28,30.22,8,1,14,0.01
2014-7-19,83.8,64.6,47.5,52.4,42.3,32.5,76,49,17,30.30,30.23,8,1,15,0.00
2014-7-20,87.3,64.1,46.4,54.9,41.9,32.5,81,51,16,30.35,30.26,10,1,16,0.02
2014-7-21,86.5,64.7,47.8,49.7,40.0,20.0,79,48,10,30.40,30.32,9,1,14,0.00
2014-7-22,86.7,68.6,48.4,47.9,38.6,21.5,71,38,10,30.50,30.39,9,2,17,0.00
2014-7-23,86.7,67.3,52.2,50.3,42.5,33.6,64,43,17,30.50,30.42,13,2,21,0.00
2014-7-24,88.2,70.0,55.8,48.6,43.7,36.6,62,42,17,30.42,30.26,10,2,15,0.00
2014-7-25,83.7,67.1,50.9,55.6,45.4,37.3,87,50,20,30.34,30.26,9,2,15,0.06
2014-7-26,79.2,60.9,49.1,60.7,49.6,43.3,93,70,29,30.43,30.30,7,1,13,0.35
2014-7-27,75.7,58.6,45.3,56.8,48.0,41.6,91,71,37,30.50,30.39,9,2,16,0.06
2014-7-28,76.8,57.7,47.3,56.5,49.0,44.2,90,75,36,30.48,30.40,8,1,14,0.19
2014-7-29,70.5,57.9,46.8,54.2,49.6,43.3,94,75,46,30.42,30.30,4,1,9,0.05
2014-7-30,56.8,52.0,50.2,52.2,50.3,49.0,97,94,81,30.40,30.31,8,1,11,0.66
2014-7-31,59.9,52.7,46.8,53.5,49.8,46.5,99,90,74,30.40,30.33,8,0,12,0.12
2014-8-1,65.1,53.1,43.7,51.6,47.5,41.8,96,82,53,30.41,30.34,6,0,13,0.17
2014-8-2,75.4,56.9,38.1,46.0,39.3,32.3,93,57,24,30.40,30.34,11,2,21,0.01
2014-8-3,78.3,63.1,47.3,50.6,42.9,34.1,84,52,22,30.40,30.31,11,2,16,0.00
2014-8-4,79.9,61.5,51.1,51.3,46.1,41.0,82,60,28,30.36,30.29,8,1,14,0.01
2014-8-5,78.1,58.1,46.9,55.6,48.2,44.3,96,72,32,30.36,30.28,11,1,22,0.44
2014-8-6,77.5,61.3,46.6,48.3,42.8,33.0,91,57,20,30.36,30.27,11,2,21,0.02
2014-8-7,76.8,59.9,47.7,52.8,47.1,42.4,91,65,34,30.35,30.24,10,1,23,0.18
2014-8-8,76.8,57.7,43.0,52.7,44.2,34.8,93,65,24,30.32,30.23,7,1,12,0.05
2014-8-9,77.9,59.2,41.5,47.8,39.8,35.0,87,53,22,30.40,30.28,8,1,14,0.00
2014-8-10,73.2,53.1,41.5,53.7,45.6,38.1,94,77,35,30.48,30.40,9,1,17,0.09
2014-8-11,73.6,58.0,43.0,49.3,44.2,39.7,95,64,36,30.48,30.41,11,2,16,0.01
2014-8-12,80.1,64.2,48.0,50.2,42.2,35.1,77,50,22,30.45,30.35,8,2,16,0.00
2014-8-13,79.5,63.4,51.8,52.2,46.7,41.9,79,57,29,30.40,30.30,9,2,14,0.00
2014-8-14,78.1,59.6,52.9,56.1,50.0,45.0,89,72,34,30.30,30.24,6,1,13,0.13
2014-8-15,82.2,61.0,44.8,48.8,43.3,32.2,86,58,18,30.34,30.27,11,2,15,0.00
2014-8-16,83.3,63.5,45.1,47.1,40.0,24.9,80,48,12,30.37,30.30,8,1,17,0.00
2014-8-17,84.4,64.0,45.7,45.4,37.2,27.0,76,42,14,30.38,30.30,11,2,17,0.00
2014-8-18,81.1,60.4,45.7,46.1,37.9,24.3,66,47,14,30.32,30.23,8,1,14,0.00
2014-8-19,80.6,61.4,46.6,52.7,41.0,26.1,73,51,14,30.25,30.14,9,1,20,0.02
2014-8-20,80.2,62.2,50.2,51.6,45.2,40.4,95,58,25,30.21,30.11,10,2,17,0.11
2014-8-21,75.4,58.9,42.8,50.7,44.5,36.0,96,64,26,30.32,30.21,8,1,14,0.02
2014-8-22,62.2,55.2,46.4,52.0,47.8,43.3,90,77,58,30.31,30.16,5,1,9,0.06
2014-8-23,70.3,56.6,45.1,51.2,41.9,34.4,92,61,34,30.20,30.11,8,2,19,0.04
2014-8-24,76.3,57.9,41.9,36.5,31.2,6.3,74,42,10,30.26,30.17,148,8,148,0.01
2014-8-25,72.1,36.0,0.0,48.9,35.6,-4.8,86,67,10,30.32,29.89,8,0,53,0.00
2014-8-26,73.9,55.4,44.4,52.9,45.3,41.0,94,73,33,30.01,29.95,10,1,24,0.25
2014-8-27,73.0,57.2,45.3,50.4,43.0,32.3,93,63,23,29.99,29.87,10,1,17,0.00
2014-8-28,67.1,51.8,41.0,46.4,39.2,35.8,83,63,38,29.93,29.88,9,1,17,0.00
2014-8-29,73.8,53.9,41.0,51.6,38.5,28.7,82,60,20,29.97,29.89,10,1,14,0.21
2014-8-30,79.3,57.2,40.3,46.8,37.9,31.9,83,54,19,29.96,29.82,9,2,19,0.00
2014-8-31,73.0,58.5,44.4,41.8,36.5,28.7,76,47,23,29.82,29.74,15,2,27,0.00
2014-9-1,76.1,56.3,37.4,42.4,32.6,26.9,88,48,18,29.93,29.81,10,2,21,0.00
2014-9-2,82.0,59.2,37.6,39.4,31.0,23.9,74,41,14,29.93,29.83,15,2,25,0.00
2014-9-3,86.2,63.5,42.8,40.9,29.2,18.0,69,35,10,29.85,29.75,10,2,21,0.00
2014-9-4,79.2,56.8,43.5,47.4,36.6,23.1,94,53,13,29.97,29.80,9,2,19,0.31
2014-9-5,69.6,53.3,45.0,51.7,46.8,40.7,98,81,46,30.06,29.94,8,1,14,0.27
2014-9-6,69.4,54.5,43.2,51.4,45.2,41.3,96,73,44,30.06,30.00,11,2,17,0.00
2014-9-7,75.4,57.1,43.2,47.9,41.5,34.1,84,61,23,30.02,29.89,14,1,21,0.00
2014-9-8,68.4,53.6,44.6,49.2,43.7,38.7,84,70,37,29.94,29.83,6,1,14,0.04
2014-9-9,72.1,57.0,49.3,51.0,46.0,40.2,92,68,39,29.84,29.72,8,1,14,0.05
2014-9-10,69.6,52.9,41.2,47.5,36.5,29.3,93,59,24,29.90,29.78,11,2,20,0.02
2014-9-11,74.1,50.0,35.4,44.7,34.9,17.9,98,65,12,30.00,29.81,13,2,21,0.01
2014-9-12,53.6,36.0,27.7,40.0,31.7,25.9,98,86,56,30.00,29.94,8,2,13,0.02
2014-9-13,75.9,53.0,31.8,30.8,22.9,9.9,83,40,10,29.94,29.89,11,2,21,0.00
2014-9-14,77.5,55.8,36.5,35.5,28.5,18.2,68,41,11,29.96,29.17,11,2,20,0.00
2014-9-15,71.1,53.8,37.8,47.9,38.0,30.2,78,57,30,30.03,29.96,11,1,16,0.00
2014-9-16,80.1,58.4,41.2,42.6,35.3,25.5,78,48,14,30.03,29.93,11,1,17,0.00
2014-9-17,82.2,59.9,42.6,40.1,34.6,26.3,71,44,14,29.95,29.87,8,1,14,0.00
2014-9-18,84.0,61.3,43.3,40.5,33.2,23.7,67,40,13,29.93,29.81,11,1,15,0.00
2014-9-19,79.9,61.5,45.1,40.8,35.2,30.6,61,40,19,29.93,29.84,10,2,21,0.00
2014-9-20,76.8,59.0,43.0,45.2,39.7,36.3,78,53,25,30.02,29.92,10,2,16,0.00
2014-9-21,72.3,58.8,49.8,54.6,48.8,46.4,96,72,44,29.92,29.68,11,1,17,0.41
2014-9-22,71.1,55.9,45.9,52.2,45.6,38.9,96,72,33,29.89,29.75,8,1,14,0.11
2014-9-23,71.4,54.5,43.9,45.2,39.1,35.9,82,60,29,29.85,29.75,11,1,19,0.00
2014-9-24,75.9,55.9,39.2,44.6,38.0,34.0,83,56,25,29.90,29.84,8,2,14,0.00
2014-9-25,79.7,59.6,42.1,43.2,38.7,35.4,78,51,22,29.89,29.79,11,2,20,0.00
2014-9-26,81.9,62.1,43.3,44.7,38.3,32.4,77,46,19,29.81,29.72,11,2,17,0.00
2014-9-27,78.3,60.1,44.4,44.1,34.3,18.5,72,44,11,29.74,29.63,11,2,18,0.00
2014-9-28,69.6,51.7,40.5,50.2,39.9,31.8,95,66,33,29.70,29.65,9,1,14,0.08
2014-9-29,62.6,46.9,39.9,46.9,41.0,30.7,95,81,46,29.69,29.46,6,1,13,0.34
2014-9-30,58.3,45.5,37.0,33.2,29.4,26.3,75,54,34,29.55,29.47,13,2,24,0.00
2014-10-1,61.2,44.6,32.9,37.1,31.3,27.0,94,63,31,29.62,29.46,10,2,20,0.00
2014-10-2,50.4,33.0,26.8,31.6,25.8,21.5,95,78,34,29.70,29.60,9,1,17,0.08
2014-10-4,67.5,55.1,42.3,26.6,22.7,15.2,53,30,14,29.75,29.67,11,3,21,0.00
2014-10-5,66.4,50.8,36.3,30.7,24.0,17.4,64,38,16,29.71,29.65,12,2,21,0.00
2014-10-6,72.5,54.0,40.5,29.2,25.8,18.2,58,36,13,29.69,29.62,14,3,26,0.00
2014-10-7,72.1,55.6,41.9,29.4,25.0,19.8,56,33,15,29.76,29.67,8,2,16,0.00
2014-10-8,70.7,50.4,37.9,34.5,30.5,26.4,67,49,21,29.75,29.65,8,1,14,0.00
2014-10-9,51.6,42.8,36.9,43.0,36.6,32.8,98,80,55,29.75,29.67,8,1,14,0.66
2014-10-10,52.5,41.3,35.4,40.7,37.4,34.7,98,87,61,29.77,29.71,8,1,12,0.14
2014-10-11,64.2,47.6,33.6,37.8,32.6,26.2,91,60,29,29.73,29.54,10,2,18,0.00
2014-10-12,50.4,39.7,30.0,35.9,28.8,21.2,91,67,37,29.65,29.38,9,2,18,0.01
2014-10-13,54.3,36.7,23.5,31.6,23.4,18.8,93,63,28,29.75,29.65,10,1,17,0.00
2014-10-14,68.5,46.2,29.5,29.6,21.7,8.5,67,43,10,29.79,29.73,9,2,14,0.00
2014-10-15,72.3,53.3,41.7,99.9,29.1,12.2,94,43,22,30.05,29.76,11,1,30,0.15
2014-10-16,74.1,54.9,36.0,32.4,24.2,9.2,73,34,10,29.98,29.87,10,2,17,0.00
2014-10-17,67.6,45.8,31.1,32.4,27.3,15.2,77,54,14,30.03,29.95,10,2,18,0.00
2014-10-18,68.7,46.7,30.9,33.8,28.4,22.8,82,54,19,30.02,29.95,8,1,14,0.00
2014-10-19,67.6,48.1,35.4,35.4,28.9,25.4,69,51,22,30.06,29.98,8,1,12,0.00
2014-10-20,69.3,48.9,32.5,36.0,30.8,26.7,81,53,23,30.06,29.97,11,2,21,0.00
2014-10-21,70.0,50.4,36.3,36.9,32.0,29.0,76,53,24,30.00,29.85,10,2,17,0.00
2014-10-22,66.2,47.2,34.7,35.1,30.3,23.8,78,55,21,30.03,29.89,9,1,14,0.00
2014-10-23,68.4,48.2,33.1,31.2,26.1,17.9,72,46,17,30.07,30.00,12,2,21,0.00
2014-10-24,77.4,53.1,36.7,23.5,18.6,9.2,55,30,10,30.14,30.05,10,2,17,0.00
2014-10-25,75.9,52.1,33.8,21.0,14.6,2.1,51,27,10,30.14,29.95,8,1,14,0.00
2014-10-26,72.3,53.2,37.8,27.2,18.5,5.4,49,29,10,29.95,29.73,11,2,21,0.00
2014-10-27,58.5,44.8,35.6,31.3,23.5,17.9,75,45,22,29.91,29.72,11,2,21,0.00
2014-10-28,44.6,44.6,44.6,20.0,20.0,20.0,37,37,37,30.02,29.89,2,2,5,0.00
2014-10-29,44.6,44.6,44.6,20.0,20.0,20.0,37,37,37,30.05,29.98,2,2,5,0.00
2014-10-30,50.2,37.3,0.0,24.4,20.5,19.2,72,39,29,30.14,29.70,2,2,5,0.00
2014-10-31,69.6,46.1,31.3,26.1,20.2,11.1,68,40,11,29.92,29.72,10,2,19,0.00
2014-11-1,64.2,46.5,36.7,33.6,26.8,19.5,61,47,25,29.73,29.56,8,2,15,0.00
2014-11-2,54.0,42.2,35.4,34.8,30.3,26.1,80,63,45,29.59,29.52,9,2,16,0.00
2014-11-3,71.1,37.1,19.6,99.9,23.4,13.9,91,63,28,30.15,29.92,11,2,30,0.13
2014-11-4,59.0,36.6,19.2,16.9,6.8,-6.7,87,37,10,30.20,30.14,10,2,15,0.00
2014-11-5,63.9,43.5,28.4,24.0,16.3,-5.1,63,37,14,30.34,30.13,10,2,17,0.00
2014-11-6,69.6,48.6,30.2,17.2,13.2,7.1,47,27,10,31.78,30.16,11,2,18,0.00
2014-11-7,63.5,47.1,31.3,29.8,15.8,1.3,84,33,13,30.30,30.08,14,2,27,0.00
2014-11-8,64.6,44.7,26.1,30.6,8.5,-10.9,91,35,10,30.31,30.13,11,2,22,0.00
2014-11-9,68.7,49.0,35.2,17.9,8.7,-0.7,41,21,10,30.14,29.72,11,2,17,0.00
2014-11-10,60.1,32.7,9.1,25.4,13.5,4.6,90,55,11,29.89,29.64,13,2,27,0.00
2014-11-11,17.8,8.2,0.0,9.9,3.6,-4.4,85,81,69,29.98,29.86,8,1,11,0.00
2014-11-12,3.2,-4.7,-16.2,-4.1,-10.3,-21.8,82,76,67,30.05,29.97,4,1,7,0.00
2014-11-13,35.6,16.0,-16.1,25.8,7.6,-21.5,89,70,39,30.03,29.87,4,0,11,0.08
2014-11-14,45.9,33.7,24.6,24.9,18.7,14.9,82,56,31,29.90,29.80,9,2,24,0.04
2014-11-15,41.7,22.3,3.2,22.8,12.5,-0.9,83,67,40,29.90,29.75,13,2,23,0.00
2014-11-16,37.0,14.3,-3.8,7.8,-0.1,-8.5,83,56,20,30.02,29.85,11,1,21,0.08
2014-11-17,32.7,20.0,11.7,1.9,-2.2,-5.9,53,38,21,30.07,29.98,10,3,24,0.00
2014-11-18,40.1,26.7,13.8,8.1,3.0,-2.2,51,36,20,30.06,29.99,14,2,38,0.00
2014-11-19,50.7,35.6,21.6,8.8,-0.2,-8.4,47,24,10,30.05,29.98,10,2,24,0.00
2014-11-20,52.2,37.6,29.8,19.6,8.1,-10.0,49,31,10,30.00,29.95,10,1,15,0.00
2014-11-21,50.7,33.2,21.2,19.8,13.1,10.1,63,45,22,30.02,29.93,11,1,21,0.00
2014-11-22,54.3,37.3,21.0,25.4,13.8,7.1,71,41,15,29.99,29.65,9,3,20,0.00
2014-11-23,36.3,28.5,16.7,22.9,13.6,0.7,65,54,26,30.03,29.66,14,2,26,0.00
2014-11-24,27.0,17.7,11.1,15.1,7.2,-2.7,81,64,41,30.26,29.99,8,1,20,0.00
2014-11-25,32.0,24.8,15.4,21.3,12.6,2.4,70,59,48,30.22,30.07,11,4,29,0.00
2014-11-26,63.9,38.7,32.0,51.4,22.4,5.1,84,52,27,30.26,29.89,14,3,26,0.05
2014-11-27,59.4,44.5,31.6,18.8,13.4,6.2,56,30,13,30.00,29.87,12,3,25,0.00
2014-11-28,63.3,48.4,41.5,11.3,4.2,-3.0,27,17,10,29.88,29.67,13,3,27,0.00
2014-11-29,60.4,42.6,32.7,5.2,2.0,-7.6,30,19,10,29.68,29.54,11,2,22,0.00
2014-11-30,55.2,36.6,12.0,12.0,5.1,-2.2,88,34,10,29.88,29.59,11,2,24,0.00
2014-12-1,50.7,30.9,8.8,23.4,13.3,4.9,92,53,27,29.88,29.82,10,2,23,0.00
2014-12-2,54.5,37.2,25.7,12.8,3.3,-9.8,47,28,10,29.87,29.74,14,2,23,0.00
2014-12-3,56.3,39.5,26.4,23.6,17.4,3.7,62,42,24,29.84,29.70,9,1,14,0.00
2014-12-4,48.4,39.7,31.1,24.3,21.6,17.9,68,49,34,29.80,29.72,6,1,11,0.00
2014-12-5,54.0,35.5,24.6,22.4,18.6,15.1,72,53,24,30.04,29.78,9,2,19,0.00
2014-12-6,47.1,34.5,27.3,24.5,19.7,15.6,68,56,36,30.04,29.94,6,1,14,0.00
2014-12-7,51.4,37.6,22.6,21.0,17.2,12.0,64,45,24,30.04,29.93,12,2,26,0.00
2014-12-8,57.7,32.6,21.4,12.5,4.1,-8.8,65,35,10,30.03,29.97,8,1,13,0.00
2014-12-9,60.1,35.0,22.3,3.4,-1.4,-10.1,36,23,10,30.03,29.91,9,1,14,0.00
2014-12-10,60.4,37.9,25.5,13.9,6.9,-2.8,50,30,12,29.93,29.86,8,2,13,0.00
2014-12-11,61.9,37.1,23.7,13.3,6.7,-3.0,58,34,10,29.89,29.82,9,1,16,0.00
2014-12-12,66.4,41.5,24.3,13.2,6.8,-0.5,41,27,10,29.90,29.80,8,1,13,0.00
2014-12-13,53.1,37.7,27.7,20.8,16.3,12.3,69,43,25,29.80,29.56,8,1,14,0.00
2014-12-14,43.2,28.9,23.9,30.4,22.1,11.3,92,76,57,29.60,29.50,10,1,21,0.13
2014-12-15,39.4,23.7,8.8,11.3,7.2,0.9,71,51,29,29.84,29.59,11,2,28,0.02
2014-12-16,50.2,26.3,10.0,21.9,11.9,-1.2,77,56,29,29.83,29.73,8,1,14,0.00
2014-12-17,43.0,26.3,16.9,24.3,18.0,11.9,89,73,39,29.75,29.64,6,0,10,0.00
2014-12-18,46.8,25.0,14.9,19.9,14.4,9.3,90,68,29,29.79,29.69,8,1,16,0.04
2014-12-19,41.5,26.5,16.2,11.5,9.0,5.7,65,49,26,29.79,29.72,11,1,22,0.00
2014-12-20,46.8,29.6,19.6,22.2,15.6,10.0,70,57,33,29.79,29.66,8,1,15,0.00
2014-12-21,41.7,31.2,25.9,26.7,20.8,13.4,89,66,40,29.66,29.45,19,2,27,0.00
2014-12-22,38.3,24.9,20.8,25.4,16.9,12.8,89,72,39,29.60,29.45,12,1,21,0.02
2014-12-23,20.8,13.9,0.0,16.8,4.5,-3.6,84,48,39,29.79,29.59,7,2,15,0.01
2014-12-24,53.6,27.6,13.5,13.8,8.3,-4.3,66,44,32,30.28,29.54,5,2,11,0.00
2014-12-25,53.2,28.2,12.2,22.1,15.1,8.1,90,62,23,29.89,29.68,13,2,21,0.00
2014-12-26,22.3,8.3,-6.2,9.9,2.2,-11.1,86,76,50,30.06,29.88,6,1,10,0.00
2014-12-27,29.3,10.2,-7.2,8.1,-4.2,-12.1,84,55,32,30.14,30.05,11,2,19,0.00
2014-12-28,37.9,21.0,7.2,11.8,5.0,-10.3,82,52,26,30.07,29.95,11,2,18,0.00
2014-12-29,14.9,6.7,-5.8,10.7,1.6,-10.7,84,79,66,30.19,29.99,8,1,14,0.00
2014-12-30,9.5,-6.0,-17.1,-6.5,-13.6,-23.0,79,69,46,30.23,30.15,6,1,12,0.00
2014-12-31,-999.9,-999.9,-999.9,-999.9,-999.9,-999.9,-999,-999,-999,-999.90,-999.90,0,0,0,0.00
2015-1-1,-999.9,-999.9,-999.9,-999.9,-999.9,-999.9,-999,-999,-999,-999.90,-999.90,0,0,0,0.00
2015-1-2,-999.9,-999.9,-999.9,-999.9,-999.9,-999.9,-999,-999,-999,-999.90,-999.90,0,0,0,0.00